Terminal Aerodrome Forecast
Issued by NWS Albany, NY

Home | Current Version | Previous Version | Text Only | Print | Product List | Glossary On
Versions: 1 2 3 4 5 6 7 8 9 10 11 12 13 14 15 16
000
FTUS41 KALY 271133
TAFPOU
TAF
KPOU 271133Z 2712/2812 16004KT P6SM BKN070
     FM271600 22007KT P6SM VCSH BKN070
      TEMPO 2717/2721 VRB15G25KT 3SM TSRA BR OVC025CB
     FM272100 24008KT P6SM SCT060 PROB30 2721/2723 4SM -TSRA BR
      BKN030CB
     FM280000 27003KT P6SM SCT250
      AMD NOT SKED=

USA.gov is the U.S. government's official web portal to all federal, state and local government web resources and services.